Terminal Aerodrome Forecast
Issued by NWS

Home | Current Version | Previous Version | Text Only | Print | Product List | Glossary Off
Versions: 1 2 3 4 5 6 7 8 9 10 11 12 13 14 15 16 17 18 19 20 21

000
FTUS43 KABR 220300 AAA
TAFPIR
TAF AMD
KPIR 220355Z 2204/2224 12014KT P6SM SCT200
     FM220900 18008KT P6SM OVC100
     FM221400 30011KT P6SM VCSH OVC050=

USA.gov is the U.S. government's official web portal to all federal, state and local government web resources and services.